sensor_id;sensor_type;location;lat;lon;timestamp;pressure;altitude;pressure_sealevel;temperature;humidity
51333;BME280;37417;48.118;11.734;2022-07-11T00:00:13;96039.09;;;11.45;100.00
51333;BME280;37417;48.118;11.734;2022-07-11T00:02:59;96040.59;;;11.54;100.00
51333;BME280;37417;48.118;11.734;2022-07-11T00:05:45;96037.84;;;11.62;100.00
51333;BME280;37417;48.118;11.734;2022-07-11T00:08:31;96029.63;;;11.65;100.00
51333;BME280;37417;48.118;11.734;2022-07-11T00:11:16;96033.84;;;11.81;100.00
51333;BME280;37417;48.118;11.734;2022-07-11T00:14:02;96026.16;;;11.79;100.00
51333;BME280;37417;48.118;11.734;2022-07-11T00:16:49;96025.78;;;11.82;100.00
51333;BME280;37417;48.118;11.734;2022-07-11T00:19:35;96031.81;;;11.83;100.00
51333;BME280;37417;48.118;11.734;2022-07-11T00:22:21;96024.19;;;11.81;100.00
51333;BME280;37417;48.118;11.734;2022-07-11T00:25:08;96025.34;;;11.79;100.00
51333;BME280;37417;48.118;11.734;2022-07-11T00:27:53;96022.09;;;11.77;100.00
51333;BME280;37417;48.118;11.734;2022-07-11T00:30:39;96017.50;;;11.79;100.00
51333;BME280;37417;48.118;11.734;2022-07-11T00:33:25;96017.94;;;11.82;100.00
51333;BME280;37417;48.118;11.734;2022-07-11T00:36:11;96026.66;;;11.89;100.00
51333;BME280;37417;48.118;11.734;2022-07-11T00:38:58;96014.59;;;11.88;100.00
51333;BME280;37417;48.118;11.734;2022-07-11T00:41:44;96017.44;;;11.93;100.00
51333;BME280;37417;48.118;11.734;2022-07-11T00:44:30;96015.63;;;11.94;100.00
51333;BME280;37417;48.118;11.734;2022-07-11T00:47:15;96013.81;;;11.95;100.00
51333;BME280;37417;48.118;11.734;2022-07-11T00:50:01;96010.81;;;11.98;100.00
51333;BME280;37417;48.118;11.734;2022-07-11T00:52:47;96009.25;;;12.03;100.00
51333;BME280;37417;48.118;11.734;2022-07-11T00:55:33;96000.66;;;12.09;100.00
51333;BME280;37417;48.118;11.734;2022-07-11T00:58:20;96002.09;;;12.12;100.00
51333;BME280;37417;48.118;11.734;2022-07-11T01:01:05;95996.28;;;12.16;100.00
51333;BME280;37417;48.118;11.734;2022-07-11T01:03:51;95995.91;;;12.19;100.00
51333;BME280;37417;48.118;11.734;2022-07-11T01:06:38;95991.25;;;12.15;100.00
51333;BME280;37417;48.118;11.734;2022-07-11T01:09:24;95990.63;;;12.13;100.00
51333;BME280;37417;48.118;11.734;2022-07-11T01:12:10;95990.03;;;12.11;100.00
51333;BME280;37417;48.118;11.734;2022-07-11T01:14:56;95991.44;;;12.13;100.00
51333;BME280;37417;48.118;11.734;2022-07-11T01:17:43;95986.81;;;12.15;100.00
51333;BME280;37417;48.118;11.734;2022-07-11T01:20:29;95993.28;;;12.19;100.00
51333;BME280;37417;48.118;11.734;2022-07-11T01:23:14;95990.66;;;12.19;100.00
51333;BME280;37417;48.118;11.734;2022-07-11T01:26:00;95997.16;;;12.24;100.00
51333;BME280;37417;48.118;11.734;2022-07-11T01:28:46;95990.09;;;12.24;100.00
51333;BME280;37417;48.118;11.734;2022-07-11T01:31:32;95987.28;;;12.26;100.00
51333;BME280;37417;48.118;11.734;2022-07-11T01:34:18;95990.72;;;12.26;100.00
51333;BME280;37417;48.118;11.734;2022-07-11T01:37:04;95985.69;;;12.25;100.00
51333;BME280;37417;48.118;11.734;2022-07-11T01:39:49;95989.09;;;12.25;100.00
51333;BME280;37417;48.118;11.734;2022-07-11T01:42:35;95984.25;;;12.22;100.00
51333;BME280;37417;48.118;11.734;2022-07-11T01:45:21;95977.41;;;12.21;100.00
51333;BME280;37417;48.118;11.734;2022-07-11T01:48:06;95984.63;;;12.19;100.00
51333;BME280;37417;48.118;11.734;2022-07-11T01:50:54;95984.00;;;12.17;100.00
51333;BME280;37417;48.118;11.734;2022-07-11T01:53:39;95977.41;;;12.21;100.00
51333;BME280;37417;48.118;11.734;2022-07-11T01:56:25;95975.03;;;12.26;100.00
51333;BME280;37417;48.118;11.734;2022-07-11T01:59:14;95979.25;;;12.27;100.00
51333;BME280;37417;48.118;11.734;2022-07-11T02:02:00;95972.63;;;12.31;100.00
51333;BME280;37417;48.118;11.734;2022-07-11T02:04:46;95967.97;;;12.27;100.00
51333;BME280;37417;48.118;11.734;2022-07-11T02:07:31;95970.00;;;12.25;100.00
51333;BME280;37417;48.118;11.734;2022-07-11T02:10:36;95969.59;;;12.28;100.00
51333;BME280;37417;48.118;11.734;2022-07-11T02:13:22;95964.56;;;12.26;100.00
51333;BME280;37417;48.118;11.734;2022-07-11T02:16:08;95963.16;;;12.24;100.00
51333;BME280;37417;48.118;11.734;2022-07-11T02:18:54;95965.94;;;12.22;100.00
51333;BME280;37417;48.118;11.734;2022-07-11T02:21:40;95958.88;;;12.23;100.00
51333;BME280;37417;48.118;11.734;2022-07-11T02:24:25;95965.13;;;12.22;100.00
51333;BME280;37417;48.118;11.734;2022-07-11T02:27:11;95961.91;;;12.19;100.00
51333;BME280;37417;48.118;11.734;2022-07-11T02:29:56;95966.53;;;12.17;100.00
51333;BME280;37417;48.118;11.734;2022-07-11T02:32:42;95965.94;;;12.22;100.00
51333;BME280;37417;48.118;11.734;2022-07-11T02:35:28;95964.28;;;12.14;100.00
51333;BME280;37417;48.118;11.734;2022-07-11T02:38:14;95960.34;;;12.25;100.00
51333;BME280;37417;48.118;11.734;2022-07-11T02:41:00;95966.16;;;12.27;100.00
51333;BME280;37417;48.118;11.734;2022-07-11T02:43:46;95963.91;;;12.17;100.00
51333;BME280;37417;48.118;11.734;2022-07-11T02:46:31;95967.75;;;12.22;100.00
51333;BME280;37417;48.118;11.734;2022-07-11T02:49:17;95960.53;;;12.24;100.00
51333;BME280;37417;48.118;11.734;2022-07-11T02:52:03;95965.16;;;12.28;100.00
51333;BME280;37417;48.118;11.734;2022-07-11T02:54:49;95964.94;;;12.23;100.00
51333;BME280;37417;48.118;11.734;2022-07-11T02:57:36;95964.09;;;12.16;100.00
51333;BME280;37417;48.118;11.734;2022-07-11T03:00:22;95960.88;;;12.14;100.00
51333;BME280;37417;48.118;11.734;2022-07-11T03:03:07;95962.47;;;12.15;100.00
51333;BME280;37417;48.118;11.734;2022-07-11T03:05:53;95966.31;;;12.19;100.00
51333;BME280;37417;48.118;11.734;2022-07-11T03:08:39;95969.56;;;12.21;100.00
51333;BME280;37417;48.118;11.734;2022-07-11T03:11:25;95963.50;;;12.20;100.00
51333;BME280;37417;48.118;11.734;2022-07-11T03:14:10;95952.06;;;12.22;100.00
51333;BME280;37417;48.118;11.734;2022-07-11T03:16:56;95957.50;;;12.27;100.00
51333;BME280;37417;48.118;11.734;2022-07-11T03:19:42;95960.53;;;12.24;100.00
51333;BME280;37417;48.118;11.734;2022-07-11T03:22:27;95953.09;;;12.27;100.00
51333;BME280;37417;48.118;11.734;2022-07-11T03:25:13;95956.13;;;12.31;100.00
51333;BME280;37417;48.118;11.734;2022-07-11T03:27:59;95953.31;;;12.32;100.00
51333;BME280;37417;48.118;11.734;2022-07-11T03:30:44;95948.50;;;12.36;100.00
51333;BME280;37417;48.118;11.734;2022-07-11T03:33:30;95959.41;;;12.39;100.00
51333;BME280;37417;48.118;11.734;2022-07-11T03:36:16;95960.22;;;12.46;100.00
51333;BME280;37417;48.118;11.734;2022-07-11T03:39:01;95961.25;;;12.45;100.00
51333;BME280;37417;48.118;11.734;2022-07-11T03:41:47;95953.38;;;12.45;100.00
51333;BME280;37417;48.118;11.734;2022-07-11T03:44:33;95949.75;;;12.46;100.00
51333;BME280;37417;48.118;11.734;2022-07-11T03:47:19;95950.19;;;12.50;100.00
51333;BME280;37417;48.118;11.734;2022-07-11T03:50:05;95957.06;;;12.58;100.00
51333;BME280;37417;48.118;11.734;2022-07-11T03:52:51;95964.91;;;12.58;100.00
51333;BME280;37417;48.118;11.734;2022-07-11T03:55:38;95954.25;;;12.59;100.00
51333;BME280;37417;48.118;11.734;2022-07-11T03:58:23;95957.50;;;12.68;100.00
51333;BME280;37417;48.118;11.734;2022-07-11T04:01:09;95961.34;;;12.72;100.00
51333;BME280;37417;48.118;11.734;2022-07-11T04:03:55;95957.34;;;12.76;100.00
51333;BME280;37417;48.118;11.734;2022-07-11T04:06:40;95953.72;;;12.77;100.00
51333;BME280;37417;48.118;11.734;2022-07-11T04:09:28;95956.53;;;12.76;100.00
51333;BME280;37417;48.118;11.734;2022-07-11T04:12:13;95949.50;;;12.76;100.00
51333;BME280;37417;48.118;11.734;2022-07-11T04:14:59;95955.31;;;12.78;100.00
51333;BME280;37417;48.118;11.734;2022-07-11T04:17:45;95962.16;;;12.79;100.00
51333;BME280;37417;48.118;11.734;2022-07-11T04:20:30;95958.53;;;12.80;100.00
51333;BME280;37417;48.118;11.734;2022-07-11T04:23:16;95965.22;;;12.83;100.00
51333;BME280;37417;48.118;11.734;2022-07-11T04:26:02;95968.88;;;12.88;100.00
51333;BME280;37417;48.118;11.734;2022-07-11T04:28:48;95962.44;;;12.97;100.00
51333;BME280;37417;48.118;11.734;2022-07-11T04:31:33;95960.84;;;13.10;100.00
51333;BME280;37417;48.118;11.734;2022-07-11T04:34:19;95958.09;;;13.24;100.00
51333;BME280;37417;48.118;11.734;2022-07-11T04:37:05;95954.28;;;13.34;100.00
51333;BME280;37417;48.118;11.734;2022-07-11T04:39:50;95957.50;;;13.36;100.00
51333;BME280;37417;48.118;11.734;2022-07-11T04:42:36;95964.97;;;13.45;100.00
51333;BME280;37417;48.118;11.734;2022-07-11T04:45:22;95971.03;;;13.52;100.00
51333;BME280;37417;48.118;11.734;2022-07-11T04:48:08;95971.22;;;13.58;100.00
51333;BME280;37417;48.118;11.734;2022-07-11T04:50:54;95972.44;;;13.62;100.00
51333;BME280;37417;48.118;11.734;2022-07-11T04:53:40;95963.56;;;13.63;100.00
51333;BME280;37417;48.118;11.734;2022-07-11T04:56:25;95970.03;;;13.60;100.00
51333;BME280;37417;48.118;11.734;2022-07-11T04:59:11;95963.19;;;13.79;100.00
51333;BME280;37417;48.118;11.734;2022-07-11T05:01:57;95973.84;;;13.71;100.00
51333;BME280;37417;48.118;11.734;2022-07-11T05:04:42;95970.63;;;13.69;100.00
51333;BME280;37417;48.118;11.734;2022-07-11T05:07:28;95977.09;;;13.79;100.00
51333;BME280;37417;48.118;11.734;2022-07-11T05:10:14;95966.81;;;13.98;100.00
51333;BME280;37417;48.118;11.734;2022-07-11T05:12:59;95975.84;;;14.02;100.00
51333;BME280;37417;48.118;11.734;2022-07-11T05:15:45;95975.84;;;14.15;100.00
51333;BME280;37417;48.118;11.734;2022-07-11T05:18:31;95986.78;;;13.99;100.00
51333;BME280;37417;48.118;11.734;2022-07-11T05:21:16;95991.19;;;14.12;100.00
51333;BME280;37417;48.118;11.734;2022-07-11T05:24:07;95986.31;;;14.28;100.00
51333;BME280;37417;48.118;11.734;2022-07-11T05:26:53;95987.09;;;14.62;100.00
51333;BME280;37417;48.118;11.734;2022-07-11T05:29:39;95985.44;;;14.68;100.00
51333;BME280;37417;48.118;11.734;2022-07-11T05:32:25;95993.00;;;14.96;100.00
51333;BME280;37417;48.118;11.734;2022-07-11T05:35:11;95991.66;;;15.18;99.78
51333;BME280;37417;48.118;11.734;2022-07-11T05:37:56;95995.78;;;15.39;96.77
51333;BME280;37417;48.118;11.734;2022-07-11T05:40:42;95996.91;;;15.56;95.87
51333;BME280;37417;48.118;11.734;2022-07-11T05:43:28;95994.28;;;15.88;92.01
51333;BME280;37417;48.118;11.734;2022-07-11T05:46:14;95995.03;;;15.95;89.75
51333;BME280;37417;48.118;11.734;2022-07-11T05:49:00;95991.22;;;16.34;90.23
51333;BME280;37417;48.118;11.734;2022-07-11T05:51:45;95997.94;;;17.22;81.57
51333;BME280;37417;48.118;11.734;2022-07-11T05:54:31;95984.75;;;16.73;80.17
51333;BME280;37417;48.118;11.734;2022-07-11T05:57:17;95987.44;;;16.48;86.24
51333;BME280;37417;48.118;11.734;2022-07-11T06:00:03;95993.00;;;18.56;74.03
51333;BME280;37417;48.118;11.734;2022-07-11T06:02:49;95994.75;;;19.71;64.82
51333;BME280;37417;48.118;11.734;2022-07-11T06:05:34;95991.50;;;19.12;65.33
51333;BME280;37417;48.118;11.734;2022-07-11T06:08:20;95987.81;;;20.37;62.71
51333;BME280;37417;48.118;11.734;2022-07-11T06:11:24;95987.31;;;21.72;56.27
51333;BME280;37417;48.118;11.734;2022-07-11T06:14:10;95993.91;;;21.42;54.12
51333;BME280;37417;48.118;11.734;2022-07-11T06:16:56;95996.03;;;20.36;55.10
51333;BME280;37417;48.118;11.734;2022-07-11T06:19:41;95996.63;;;19.30;60.15
51333;BME280;37417;48.118;11.734;2022-07-11T06:22:27;95987.34;;;20.79;55.04
51333;BME280;37417;48.118;11.734;2022-07-11T06:25:13;95986.78;;;21.21;53.97
51333;BME280;37417;48.118;11.734;2022-07-11T06:27:58;95982.38;;;21.31;52.91
51333;BME280;37417;48.118;11.734;2022-07-11T06:30:46;95982.69;;;21.62;51.67
51333;BME280;37417;48.118;11.734;2022-07-11T06:33:32;95985.03;;;22.60;48.49
51333;BME280;37417;48.118;11.734;2022-07-11T06:36:17;95983.53;;;20.70;52.34
51333;BME280;37417;48.118;11.734;2022-07-11T06:39:04;95990.59;;;21.52;50.16
51333;BME280;37417;48.118;11.734;2022-07-11T06:41:50;95991.28;;;19.87;54.70
51333;BME280;37417;48.118;11.734;2022-07-11T06:44:36;95984.09;;;19.54;56.05
51333;BME280;37417;48.118;11.734;2022-07-11T06:47:21;95984.56;;;21.61;50.58
51333;BME280;37417;48.118;11.734;2022-07-11T06:50:07;95988.47;;;22.13;50.92
51333;BME280;37417;48.118;11.734;2022-07-11T06:52:53;95984.50;;;22.58;46.86
51333;BME280;37417;48.118;11.734;2022-07-11T06:55:39;95984.47;;;22.10;49.39
51333;BME280;37417;48.118;11.734;2022-07-11T06:58:25;95990.84;;;19.90;52.74
51333;BME280;37417;48.118;11.734;2022-07-11T07:01:17;95983.19;;;18.91;57.77
51333;BME280;37417;48.118;11.734;2022-07-11T07:04:03;95983.16;;;17.63;61.89
51333;BME280;37417;48.118;11.734;2022-07-11T07:06:49;95982.13;;;18.05;62.29
51333;BME280;37417;48.118;11.734;2022-07-11T07:09:34;95975.56;;;18.08;61.51
51333;BME280;37417;48.118;11.734;2022-07-11T07:12:21;95983.59;;;18.13;62.13
51333;BME280;37417;48.118;11.734;2022-07-11T07:15:07;95979.63;;;17.69;65.64
51333;BME280;37417;48.118;11.734;2022-07-11T07:17:54;95983.25;;;18.68;65.42
51333;BME280;37417;48.118;11.734;2022-07-11T07:20:40;95987.81;;;19.70;65.55
51333;BME280;37417;48.118;11.734;2022-07-11T07:23:25;95984.06;;;18.57;61.97
51333;BME280;37417;48.118;11.734;2022-07-11T07:26:11;95982.28;;;19.26;62.06
51333;BME280;37417;48.118;11.734;2022-07-11T07:28:57;95987.66;;;20.44;61.53
51333;BME280;37417;48.118;11.734;2022-07-11T07:31:42;95994.13;;;20.92;58.57
51333;BME280;37417;48.118;11.734;2022-07-11T07:34:28;95992.63;;;20.79;58.21
51333;BME280;37417;48.118;11.734;2022-07-11T07:37:14;95988.38;;;21.22;56.64
51333;BME280;37417;48.118;11.734;2022-07-11T07:40:00;95998.22;;;20.05;59.04
51333;BME280;37417;48.118;11.734;2022-07-11T07:42:45;95986.16;;;20.70;58.92
51333;BME280;37417;48.118;11.734;2022-07-11T07:45:31;95994.56;;;22.13;56.12
51333;BME280;37417;48.118;11.734;2022-07-11T07:48:18;95991.34;;;22.91;53.11
51333;BME280;37417;48.118;11.734;2022-07-11T07:51:04;95989.97;;;23.82;50.53
51333;BME280;37417;48.118;11.734;2022-07-11T07:53:49;95994.16;;;24.79;47.72
51333;BME280;37417;48.118;11.734;2022-07-11T07:56:35;95992.63;;;24.58;47.31
51333;BME280;37417;48.118;11.734;2022-07-11T07:59:21;95988.91;;;23.88;47.78
51333;BME280;37417;48.118;11.734;2022-07-11T08:02:10;95986.00;;;23.99;47.34
51333;BME280;37417;48.118;11.734;2022-07-11T08:04:56;95992.41;;;23.83;47.12
51333;BME280;37417;48.118;11.734;2022-07-11T08:07:41;95987.88;;;24.09;47.55
51333;BME280;37417;48.118;11.734;2022-07-11T08:10:27;95983.00;;;23.55;45.99
51333;BME280;37417;48.118;11.734;2022-07-11T08:13:12;95984.06;;;22.76;48.98
51333;BME280;37417;48.118;11.734;2022-07-11T08:15:58;95991.84;;;23.66;49.82
51333;BME280;37417;48.118;11.734;2022-07-11T08:18:44;95983.06;;;23.65;48.58
51333;BME280;37417;48.118;11.734;2022-07-11T08:21:30;95989.50;;;21.26;49.88
51333;BME280;37417;48.118;11.734;2022-07-11T08:24:16;95988.06;;;22.74;49.66
51333;BME280;37417;48.118;11.734;2022-07-11T08:27:02;95983.22;;;20.88;51.99
51333;BME280;37417;48.118;11.734;2022-07-11T08:29:48;95982.63;;;20.25;56.20
51333;BME280;37417;48.118;11.734;2022-07-11T08:32:37;95981.91;;;21.13;52.31
51333;BME280;37417;48.118;11.734;2022-07-11T08:35:23;95980.78;;;23.16;49.16
51333;BME280;37417;48.118;11.734;2022-07-11T08:38:09;95990.19;;;22.29;50.09
51333;BME280;37417;48.118;11.734;2022-07-11T08:40:55;95977.25;;;22.43;46.62
51333;BME280;37417;48.118;11.734;2022-07-11T08:43:41;95993.97;;;23.89;48.03
51333;BME280;37417;48.118;11.734;2022-07-11T08:46:28;95988.00;;;23.26;45.36
51333;BME280;37417;48.118;11.734;2022-07-11T08:49:14;95983.84;;;24.27;40.75
51333;BME280;37417;48.118;11.734;2022-07-11T08:52:00;95986.78;;;24.46;42.36
51333;BME280;37417;48.118;11.734;2022-07-11T08:54:47;95985.78;;;21.27;45.82
51333;BME280;37417;48.118;11.734;2022-07-11T08:57:34;95976.75;;;22.51;44.18
51333;BME280;37417;48.118;11.734;2022-07-11T09:00:20;95980.06;;;23.46;44.10
51333;BME280;37417;48.118;11.734;2022-07-11T09:03:07;95987.31;;;22.36;47.25
51333;BME280;37417;48.118;11.734;2022-07-11T09:05:57;95986.41;;;21.34;47.50
51333;BME280;37417;48.118;11.734;2022-07-11T09:08:43;95973.16;;;20.29;50.70
51333;BME280;37417;48.118;11.734;2022-07-11T09:11:51;95971.44;;;18.35;55.50
51333;BME280;37417;48.118;11.734;2022-07-11T09:14:37;95968.50;;;19.86;55.65
51333;BME280;37417;48.118;11.734;2022-07-11T09:17:28;95971.53;;;20.28;54.73
51333;BME280;37417;48.118;11.734;2022-07-11T09:20:15;95975.94;;;18.99;57.80
51333;BME280;37417;48.118;11.734;2022-07-11T09:23:01;95974.97;;;18.76;56.65
51333;BME280;37417;48.118;11.734;2022-07-11T09:26:05;95971.31;;;19.80;57.93
51333;BME280;37417;48.118;11.734;2022-07-11T09:29:01;95971.38;;;19.23;55.58
51333;BME280;37417;48.118;11.734;2022-07-11T09:31:47;95968.56;;;18.13;58.05
51333;BME280;37417;48.118;11.734;2022-07-11T09:34:33;95970.97;;;18.15;58.90
51333;BME280;37417;48.118;11.734;2022-07-11T09:37:19;95968.34;;;18.27;59.70
51333;BME280;37417;48.118;11.734;2022-07-11T09:40:11;95974.41;;;18.16;60.53
51333;BME280;37417;48.118;11.734;2022-07-11T09:42:58;95980.84;;;18.55;60.00
51333;BME280;37417;48.118;11.734;2022-07-11T09:45:44;95979.81;;;19.08;58.27
51333;BME280;37417;48.118;11.734;2022-07-11T09:48:30;95977.63;;;18.53;58.63
51333;BME280;37417;48.118;11.734;2022-07-11T09:51:19;95980.47;;;20.06;55.72
51333;BME280;37417;48.118;11.734;2022-07-11T09:54:06;95973.19;;;20.51;51.85
51333;BME280;37417;48.118;11.734;2022-07-11T09:56:52;95982.81;;;20.58;54.21
51333;BME280;37417;48.118;11.734;2022-07-11T09:59:38;95969.03;;;20.77;53.04
51333;BME280;37417;48.118;11.734;2022-07-11T10:02:25;95973.34;;;23.23;49.02
51333;BME280;37417;48.118;11.734;2022-07-11T10:05:11;95971.75;;;21.53;49.09
51333;BME280;37417;48.118;11.734;2022-07-11T10:07:57;95966.84;;;20.52;51.17
51333;BME280;37417;48.118;11.734;2022-07-11T10:10:43;95973.03;;;20.58;53.49
51333;BME280;37417;48.118;11.734;2022-07-11T10:13:29;95977.78;;;19.27;54.61
51333;BME280;37417;48.118;11.734;2022-07-11T10:16:22;95976.78;;;19.16;54.88
51333;BME280;37417;48.118;11.734;2022-07-11T10:19:16;95971.31;;;19.63;54.55
51333;BME280;37417;48.118;11.734;2022-07-11T10:22:25;95961.50;;;20.91;50.22
51333;BME280;37417;48.118;11.734;2022-07-11T10:28:27;95971.63;;;19.66;52.77
51333;BME280;37417;48.118;11.734;2022-07-11T10:31:23;95969.69;;;19.62;53.71
51333;BME280;37417;48.118;11.734;2022-07-11T10:34:10;95973.00;;;20.19;53.09
51333;BME280;37417;48.118;11.734;2022-07-11T10:37:04;95972.09;;;20.31;53.17
51333;BME280;37417;48.118;11.734;2022-07-11T10:39:57;95989.28;;;20.11;53.41
51333;BME280;37417;48.118;11.734;2022-07-11T10:42:43;95985.31;;;19.06;55.85
51333;BME280;37417;48.118;11.734;2022-07-11T10:45:49;95987.75;;;19.65;56.78
51333;BME280;37417;48.118;11.734;2022-07-11T10:48:52;95980.31;;;20.90;54.11
51333;BME280;37417;48.118;11.734;2022-07-11T10:57:32;95991.66;;;20.63;54.18
51333;BME280;37417;48.118;11.734;2022-07-11T11:00:20;95999.63;;;19.51;56.21
51333;BME280;37417;48.118;11.734;2022-07-11T11:03:08;95990.91;;;20.12;54.35
51333;BME280;37417;48.118;11.734;2022-07-11T11:05:54;95990.44;;;19.53;56.47
51333;BME280;37417;48.118;11.734;2022-07-11T11:08:41;95988.38;;;20.78;53.42
51333;BME280;37417;48.118;11.734;2022-07-11T11:14:22;95986.22;;;21.68;52.02
51333;BME280;37417;48.118;11.734;2022-07-11T11:17:36;95982.66;;;21.08;52.13
51333;BME280;37417;48.118;11.734;2022-07-11T11:20:31;95977.47;;;20.96;51.38
51333;BME280;37417;48.118;11.734;2022-07-11T11:23:21;95982.97;;;20.90;52.13
51333;BME280;37417;48.118;11.734;2022-07-11T11:29:04;95988.75;;;23.06;46.85
51333;BME280;37417;48.118;11.734;2022-07-11T11:31:54;95988.66;;;24.25;45.59
51333;BME280;37417;48.118;11.734;2022-07-11T11:34:40;95992.38;;;24.24;44.98
51333;BME280;37417;48.118;11.734;2022-07-11T11:37:29;95983.88;;;24.17;45.07
51333;BME280;37417;48.118;11.734;2022-07-11T11:40:15;95985.03;;;22.55;47.55
51333;BME280;37417;48.118;11.734;2022-07-11T11:43:00;95985.69;;;22.82;48.44
51333;BME280;37417;48.118;11.734;2022-07-11T11:45:50;95979.09;;;22.90;47.87
51333;BME280;37417;48.118;11.734;2022-07-11T11:48:37;95987.53;;;22.82;47.69
51333;BME280;37417;48.118;11.734;2022-07-11T11:51:23;95993.25;;;21.52;49.88
51333;BME280;37417;48.118;11.734;2022-07-11T11:54:10;95997.41;;;22.39;50.01
51333;BME280;37417;48.118;11.734;2022-07-11T11:56:55;95996.13;;;22.41;49.80
51333;BME280;37417;48.118;11.734;2022-07-11T11:59:43;96000.91;;;22.44;50.32
51333;BME280;37417;48.118;11.734;2022-07-11T12:02:29;95995.13;;;22.58;50.57
51333;BME280;37417;48.118;11.734;2022-07-11T12:05:16;95995.44;;;23.19;49.66
51333;BME280;37417;48.118;11.734;2022-07-11T12:08:05;95992.72;;;20.84;52.35
51333;BME280;37417;48.118;11.734;2022-07-11T12:10:54;95990.78;;;21.23;52.10
51333;BME280;37417;48.118;11.734;2022-07-11T12:13:41;96003.50;;;22.82;51.33
51333;BME280;37417;48.118;11.734;2022-07-11T12:16:27;96004.38;;;24.06;49.16
51333;BME280;37417;48.118;11.734;2022-07-11T12:19:27;95989.44;;;24.30;45.96
51333;BME280;37417;48.118;11.734;2022-07-11T12:22:18;95988.84;;;25.44;45.50
51333;BME280;37417;48.118;11.734;2022-07-11T12:25:04;95982.50;;;25.79;40.84
51333;BME280;37417;48.118;11.734;2022-07-11T12:27:55;95981.00;;;22.10;48.87
51333;BME280;37417;48.118;11.734;2022-07-11T12:30:42;95980.00;;;22.63;49.41
51333;BME280;37417;48.118;11.734;2022-07-11T12:33:28;95980.44;;;22.87;50.40
51333;BME280;37417;48.118;11.734;2022-07-11T12:36:13;95972.69;;;23.64;44.88
51333;BME280;37417;48.118;11.734;2022-07-11T12:38:59;95975.69;;;25.53;42.26
51333;BME280;37417;48.118;11.734;2022-07-11T12:41:45;95978.69;;;24.87;44.04
51333;BME280;37417;48.118;11.734;2022-07-11T12:44:31;95977.69;;;26.39;41.83
51333;BME280;37417;48.118;11.734;2022-07-11T12:47:41;95976.59;;;28.25;38.98
51333;BME280;37417;48.118;11.734;2022-07-11T12:50:28;95972.66;;;30.81;35.30
51333;BME280;37417;48.118;11.734;2022-07-11T12:53:16;95977.41;;;25.83;39.40
51333;BME280;37417;48.118;11.734;2022-07-11T12:56:01;95969.47;;;26.84;38.98
51333;BME280;37417;48.118;11.734;2022-07-11T12:58:47;95978.06;;;28.37;37.11
51333;BME280;37417;48.118;11.734;2022-07-11T13:01:33;95968.91;;;25.71;40.42
51333;BME280;37417;48.118;11.734;2022-07-11T13:04:47;95964.69;;;25.99;38.98
51333;BME280;37417;48.118;11.734;2022-07-11T13:07:34;95963.06;;;26.03;38.92
51333;BME280;37417;48.118;11.734;2022-07-11T13:10:39;95965.44;;;24.30;43.08
51333;BME280;37417;48.118;11.734;2022-07-11T13:13:37;95961.75;;;23.70;44.12
51333;BME280;37417;48.118;11.734;2022-07-11T13:16:23;95956.06;;;26.65;39.88
51333;BME280;37417;48.118;11.734;2022-07-11T13:19:09;95954.28;;;29.40;34.72
51333;BME280;37417;48.118;11.734;2022-07-11T13:21:54;95958.41;;;28.82;34.40
51333;BME280;37417;48.118;11.734;2022-07-11T13:24:40;95958.59;;;30.62;33.45
51333;BME280;37417;48.118;11.734;2022-07-11T13:27:26;95954.91;;;31.46;30.81
51333;BME280;37417;48.118;11.734;2022-07-11T13:30:13;95957.09;;;32.13;31.72
51333;BME280;37417;48.118;11.734;2022-07-11T13:33:02;95950.59;;;31.27;30.82
51333;BME280;37417;48.118;11.734;2022-07-11T13:35:48;95953.53;;;30.07;31.67
51333;BME280;37417;48.118;11.734;2022-07-11T13:38:34;95953.44;;;29.03;33.79
51333;BME280;37417;48.118;11.734;2022-07-11T13:41:20;95951.31;;;28.45;35.14
51333;BME280;37417;48.118;11.734;2022-07-11T13:44:06;95939.31;;;29.48;31.91
51333;BME280;37417;48.118;11.734;2022-07-11T13:46:51;95955.81;;;28.64;34.14
51333;BME280;37417;48.118;11.734;2022-07-11T13:49:37;95941.22;;;28.10;36.10
51333;BME280;37417;48.118;11.734;2022-07-11T13:52:22;95937.31;;;27.50;35.53
51333;BME280;37417;48.118;11.734;2022-07-11T13:55:08;95941.97;;;27.96;35.88
51333;BME280;37417;48.118;11.734;2022-07-11T13:57:55;95927.34;;;25.05;38.48
51333;BME280;37417;48.118;11.734;2022-07-11T14:00:41;95934.16;;;28.74;34.45
51333;BME280;37417;48.118;11.734;2022-07-11T14:03:28;95938.75;;;28.27;35.55
51333;BME280;37417;48.118;11.734;2022-07-11T14:06:13;95938.69;;;28.46;35.03
51333;BME280;37417;48.118;11.734;2022-07-11T14:08:59;95939.13;;;28.80;33.80
51333;BME280;37417;48.118;11.734;2022-07-11T14:11:45;95946.88;;;28.41;35.36
51333;BME280;37417;48.118;11.734;2022-07-11T14:14:31;95936.19;;;28.22;34.70
51333;BME280;37417;48.118;11.734;2022-07-11T14:17:18;95943.31;;;28.26;35.63
51333;BME280;37417;48.118;11.734;2022-07-11T14:20:04;95939.00;;;26.03;39.74
51333;BME280;37417;48.118;11.734;2022-07-11T14:22:50;95942.84;;;25.91;41.28
51333;BME280;37417;48.118;11.734;2022-07-11T14:25:36;95946.38;;;24.88;41.64
51333;BME280;37417;48.118;11.734;2022-07-11T14:28:21;95939.75;;;25.69;40.74
51333;BME280;37417;48.118;11.734;2022-07-11T14:31:07;95931.38;;;23.87;42.73
51333;BME280;37417;48.118;11.734;2022-07-11T14:33:54;95924.94;;;24.39;43.14
51333;BME280;37417;48.118;11.734;2022-07-11T14:36:40;95922.78;;;25.55;42.08
51333;BME280;37417;48.118;11.734;2022-07-11T14:39:26;95930.78;;;23.29;47.19
51333;BME280;37417;48.118;11.734;2022-07-11T14:42:12;95934.88;;;22.84;46.17